Arcola, Texas
Current Conditions -  °F | °C
As of 3:35 PM on Monday 24 Nov 2014 (Local Time) from KAXH Reporting Station
Scattered Clouds Scattered Clouds  
Wind Chill: 61°   Ceiling: Unl
Heat Index: 61°   Visibility: 10mi
Dew Point: 33°   Wind: 9mph
Humidity: 35%   Direction: 340°NNW
Pressure: 30.01"   Gusts: 16mph
Location:  29.4042°N, 95.4477°W
Report Text: KAXH 242135Z AUTO 34008G14KT 10SM SCT120 16/01 A3001 RMK AO2 T01630007
Loading
Personal Weather Stations






























Interactive Weather Map New forecast layout! Learn more

10-Day Weather Forecast

Advertisements
Track Severe Weather on mobile